sensor_id;sensor_type;location;lat;lon;timestamp;P1;durP1;ratioP1;P2;durP2;ratioP2
5929;SDS011;2990;48.746;9.236;2022-10-31T08:43:28;268.65;;;255.18;;
5929;SDS011;2990;48.746;9.236;2022-10-31T08:45:54;327.48;;;310.38;;
5929;SDS011;2990;48.746;9.236;2022-10-31T08:48:20;358.60;;;339.40;;
5929;SDS011;2990;48.746;9.236;2022-10-31T08:50:46;432.25;;;407.77;;
5929;SDS011;2990;48.746;9.236;2022-10-31T08:53:13;456.55;;;430.08;;
5929;SDS011;2990;48.746;9.236;2022-10-31T08:55:43;502.90;;;472.73;;
5929;SDS011;2990;48.746;9.236;2022-10-31T08:58:11;563.92;;;528.13;;
5929;SDS011;2990;48.746;9.236;2022-10-31T09:00:38;585.47;;;548.50;;
5929;SDS011;2990;48.746;9.236;2022-10-31T09:03:05;598.58;;;560.92;;
5929;SDS011;2990;48.746;9.236;2022-10-31T09:05:34;604.92;;;566.53;;
5929;SDS011;2990;48.746;9.236;2022-10-31T09:08:00;640.20;;;599.22;;
5929;SDS011;2990;48.746;9.236;2022-10-31T09:10:28;650.80;;;608.22;;
5929;SDS011;2990;48.746;9.236;2022-10-31T09:12:56;671.25;;;627.47;;
5929;SDS011;2990;48.746;9.236;2022-10-31T09:15:40;659.60;;;616.17;;
5929;SDS011;2990;48.746;9.236;2022-10-31T09:18:24;637.42;;;596.97;;
5929;SDS011;2990;48.746;9.236;2022-10-31T09:20:53;589.72;;;552.90;;
5929;SDS011;2990;48.746;9.236;2022-10-31T09:23:20;624.88;;;585.60;;
5929;SDS011;2990;48.746;9.236;2022-10-31T09:25:47;591.88;;;555.17;;
5929;SDS011;2990;48.746;9.236;2022-10-31T09:28:15;606.47;;;568.75;;
5929;SDS011;2990;48.746;9.236;2022-10-31T09:30:45;571.10;;;536.03;;
5929;SDS011;2990;48.746;9.236;2022-10-31T09:33:13;584.38;;;548.55;;
5929;SDS011;2990;48.746;9.236;2022-10-31T09:35:40;585.08;;;548.65;;
5929;SDS011;2990;48.746;9.236;2022-10-31T09:38:10;590.67;;;553.25;;
5929;SDS011;2990;48.746;9.236;2022-10-31T09:40:43;600.85;;;563.10;;
5929;SDS011;2990;48.746;9.236;2022-10-31T09:43:34;585.03;;;548.72;;
5929;SDS011;2990;48.746;9.236;2022-10-31T09:46:20;596.45;;;559.15;;
5929;SDS011;2990;48.746;9.236;2022-10-31T09:51:49;578.15;;;542.42;;
5929;SDS011;2990;48.746;9.236;2022-10-31T09:54:32;594.50;;;557.58;;
5929;SDS011;2990;48.746;9.236;2022-10-31T09:57:05;587.80;;;551.40;;
5929;SDS011;2990;48.746;9.236;2022-10-31T09:59:39;579.03;;;543.38;;
5929;SDS011;2990;48.746;9.236;2022-10-31T10:13:25;569.10;;;533.88;;
5929;SDS011;2990;48.746;9.236;2022-10-31T10:26:53;568.25;;;533.42;;
5929;SDS011;2990;48.746;9.236;2022-10-31T10:29:44;539.97;;;507.88;;
5929;SDS011;2990;48.746;9.236;2022-10-31T10:32:29;567.50;;;532.53;;
5929;SDS011;2990;48.746;9.236;2022-10-31T10:35:07;571.20;;;536.30;;
5929;SDS011;2990;48.746;9.236;2022-10-31T10:37:56;545.38;;;512.47;;
5929;SDS011;2990;48.746;9.236;2022-10-31T10:40:45;560.25;;;524.92;;
5929;SDS011;2990;48.746;9.236;2022-10-31T10:45:44;524.58;;;492.33;;
5929;SDS011;2990;48.746;9.236;2022-10-31T10:54:15;555.55;;;521.50;;
5929;SDS011;2990;48.746;9.236;2022-10-31T10:56:55;527.42;;;495.40;;
5929;SDS011;2990;48.746;9.236;2022-10-31T10:59:25;542.92;;;509.40;;
5929;SDS011;2990;48.746;9.236;2022-10-31T11:01:51;528.35;;;496.20;;
5929;SDS011;2990;48.746;9.236;2022-10-31T11:04:29;547.35;;;514.00;;
5929;SDS011;2990;48.746;9.236;2022-10-31T11:07:06;548.10;;;514.55;;
5929;SDS011;2990;48.746;9.236;2022-10-31T11:09:37;558.92;;;524.95;;
5929;SDS011;2990;48.746;9.236;2022-10-31T11:12:11;547.40;;;513.65;;
5929;SDS011;2990;48.746;9.236;2022-10-31T11:14:53;565.33;;;530.92;;
5929;SDS011;2990;48.746;9.236;2022-10-31T11:17:26;533.92;;;501.33;;
5929;SDS011;2990;48.746;9.236;2022-10-31T11:20:49;548.38;;;514.90;;
5929;SDS011;2990;48.746;9.236;2022-10-31T11:22:46;547.58;;;514.17;;
5929;SDS011;2990;48.746;9.236;2022-10-31T11:27:44;509.00;;;479.00;;
5929;SDS011;2990;48.746;9.236;2022-10-31T11:30:14;507.98;;;478.02;;
5929;SDS011;2990;48.746;9.236;2022-10-31T11:32:42;515.85;;;485.27;;
5929;SDS011;2990;48.746;9.236;2022-10-31T11:35:16;489.58;;;460.65;;
5929;SDS011;2990;48.746;9.236;2022-10-31T11:37:46;490.80;;;461.58;;
5929;SDS011;2990;48.746;9.236;2022-10-31T11:40:16;480.55;;;452.27;;
5929;SDS011;2990;48.746;9.236;2022-10-31T11:42:54;475.08;;;447.33;;
5929;SDS011;2990;48.746;9.236;2022-10-31T11:47:50;399.52;;;377.23;;
5929;SDS011;2990;48.746;9.236;2022-10-31T11:50:31;364.70;;;344.85;;
5929;SDS011;2990;48.746;9.236;2022-10-31T11:53:01;362.35;;;342.73;;
5929;SDS011;2990;48.746;9.236;2022-10-31T11:55:34;372.10;;;351.35;;
5929;SDS011;2990;48.746;9.236;2022-10-31T11:58:04;313.17;;;296.88;;
5929;SDS011;2990;48.746;9.236;2022-10-31T12:00:54;303.00;;;287.52;;
5929;SDS011;2990;48.746;9.236;2022-10-31T12:05:56;231.07;;;219.98;;
5929;SDS011;2990;48.746;9.236;2022-10-31T12:08:29;197.70;;;188.63;;
5929;SDS011;2990;48.746;9.236;2022-10-31T12:16:28;159.20;;;152.15;;
5929;SDS011;2990;48.746;9.236;2022-10-31T12:22:02;144.20;;;137.73;;
5929;SDS011;2990;48.746;9.236;2022-10-31T12:24:53;141.20;;;135.00;;
5929;SDS011;2990;48.746;9.236;2022-10-31T12:33:29;171.55;;;163.90;;
5929;SDS011;2990;48.746;9.236;2022-10-31T12:43:45;136.23;;;130.13;;
5929;SDS011;2990;48.746;9.236;2022-10-31T12:52:09;188.63;;;179.90;;
5929;SDS011;2990;48.746;9.236;2022-10-31T12:57:22;159.55;;;152.50;;
5929;SDS011;2990;48.746;9.236;2022-10-31T13:00:03;163.50;;;156.27;;
5929;SDS011;2990;48.746;9.236;2022-10-31T13:05:40;153.65;;;146.82;;
5929;SDS011;2990;48.746;9.236;2022-10-31T13:08:18;144.23;;;137.70;;
5929;SDS011;2990;48.746;9.236;2022-10-31T13:11:34;170.05;;;162.43;;
5929;SDS011;2990;48.746;9.236;2022-10-31T13:16:25;158.57;;;151.45;;
5929;SDS011;2990;48.746;9.236;2022-10-31T13:19:03;168.60;;;161.05;;
5929;SDS011;2990;48.746;9.236;2022-10-31T13:21:36;156.30;;;149.32;;
5929;SDS011;2990;48.746;9.236;2022-10-31T13:24:14;155.98;;;149.05;;
5929;SDS011;2990;48.746;9.236;2022-10-31T13:26:58;157.05;;;149.93;;
5929;SDS011;2990;48.746;9.236;2022-10-31T13:29:50;173.50;;;165.57;;
5929;SDS011;2990;48.746;9.236;2022-10-31T13:32:14;175.23;;;167.32;;
5929;SDS011;2990;48.746;9.236;2022-10-31T13:34:42;183.15;;;174.70;;
5929;SDS011;2990;48.746;9.236;2022-10-31T13:37:29;192.85;;;184.00;;
5929;SDS011;2990;48.746;9.236;2022-10-31T13:40:25;212.27;;;202.25;;
5929;SDS011;2990;48.746;9.236;2022-10-31T13:42:59;234.23;;;222.90;;
5929;SDS011;2990;48.746;9.236;2022-10-31T13:45:54;202.40;;;192.95;;
5929;SDS011;2990;48.746;9.236;2022-10-31T13:51:04;157.32;;;150.45;;
5929;SDS011;2990;48.746;9.236;2022-10-31T13:53:36;154.30;;;147.43;;
5929;SDS011;2990;48.746;9.236;2022-10-31T13:56:15;138.35;;;132.32;;
5929;SDS011;2990;48.746;9.236;2022-10-31T13:59:02;135.48;;;129.60;;
5929;SDS011;2990;48.746;9.236;2022-10-31T14:01:35;150.25;;;143.65;;
5929;SDS011;2990;48.746;9.236;2022-10-31T14:07:15;146.93;;;140.38;;
5929;SDS011;2990;48.746;9.236;2022-10-31T14:09:24;140.10;;;133.85;;
